Millington, TN (38053)

12:13 PM CDT on July 29, 2016 (GMT -0500)
Lucy | | Change Station

Elev 276 ft 35.31 °N, 89.93 °W | Updated 11 minutes ago

Overcast
Overcast
79.9 °F
Feels Like 86 °F
N
0.7
Wind Variable Wind from West
Gusts 2.2 mph

Today
High -- | Low -- °F
--% Chance of Precip.
Yesterday
High -- | Low -- °F
Precip. -- in
Pressure 29.98 in
Visibility 6.0 miles
Clouds Overcast 1000 ft
Heat Index 86 °F
Dew Point 78 °F
Humidity 93%
Rainfall 0.00 in
Snow Depth Not available.
6:06 AM 8:05 PM
Waning Crescent, 20% visible
METAR KNQA 291650Z 21005KT 6SM BR OVC010 28/24 A2998
Pressure 29.98 in
Visibility 6.0 miles
Clouds Overcast 1000 ft
Heat Index 86 °F
Dew Point 78 °F
Humidity 93%
Rainfall 0.00 in
Snow Depth Not available.
6:06 AM 8:05 PM
Waning Crescent, 20% visible
METAR KNQA 291650Z 21005KT 6SM BR OVC010 28/24 A2998

10-Day Weather Forecast

Almanac

Astronomy

Jul. 29, 2016 Rise Set
Actual Time
Civil Twilight
Nautical Twilight
Astronomical Twilight
Moon
Length of Visible Light
Length of Day
Tomorrow will be .
, % of the Moon is Illuminated

Today's Extremes

State Highs State Lows

Community

WunderPhotos

Upload Photos

1,928,381 photos uploaded!

WunderBlog® & News

Nearby

Air Quality

  Air Quality AQ Index Pollutant
Not available.

Snow Depth

Station Depth Elevation

Earthquake Activity

City Distance Mag. Time & Date
Minimum magnitude displayed is 2.5.

Coastal Water Temperatures

Place Temperature

Stations

Nearby Weather Stations

Station Location Temp. Windchill Dew Point Humidity Wind Precip. Elev Updated Type
                   

Watches & Warnings

There are currently no watches in effect.